REV30 EGPK-EGNX
Flight info
| Callsign | REV30 |
|---|---|
| Flight time | 1h 15m |
| Altitude | 7000 |
| Route | LUCCO Z248 OSMEG T256 DCS N57 POL |
| Aircraft | BE58/L-SDFGRY/C |
Departure
| Time | 2026-05-04 17:18 |
|---|---|
| Airport | Glasgow Prestwick Airport (EGPK) |
Arrival
| Time | 2026-05-04 18:33 |
|---|---|
| Airport | East Midlands Airport (EGNX) |
| Time | Latitude | Longitude | Altitude | Speed | Heading |
|---|---|---|---|---|---|
| 2026-05-04 16:52 | 55.50145 | -4.58181 | 49 ft | 0 kts | 220° |
| 2026-05-04 17:12 | 55.50096 | -4.58165 | 49 ft | 7 kts | 116° |
| 2026-05-04 17:13 | 55.50178 | -4.58047 | 52 ft | 5 kts | 24° |
| 2026-05-04 17:14 | 55.50293 | -4.57956 | 53 ft | 0 kts | 21° |
| 2026-05-04 17:16 | 55.50303 | -4.57949 | 53 ft | 6 kts | 22° |
| 2026-05-04 17:17 | 55.50376 | -4.57898 | 52 ft | 16 kts | 7° |
| 2026-05-04 17:17 | 55.51173 | -4.60252 | 567 ft | 104 kts | 300° |
| 2026-05-04 17:18 | 55.51541 | -4.61310 | 965 ft | 102 kts | 300° |
| 2026-05-04 17:18 | 55.52329 | -4.63597 | 1909 ft | 114 kts | 300° |
| 2026-05-04 17:19 | 55.52907 | -4.66149 | 2945 ft | 116 kts | 278° |
| 2026-05-04 17:19 | 55.52588 | -4.68929 | 3944 ft | 122 kts | 246° |
| 2026-05-04 17:20 | 55.51397 | -4.71075 | 4893 ft | 127 kts | 221° |
| 2026-05-04 17:20 | 55.49924 | -4.72825 | 5705 ft | 138 kts | 209° |
| 2026-05-04 17:20 | 55.48958 | -4.73436 | 5898 ft | 156 kts | 199° |
| 2026-05-04 17:21 | 55.46602 | -4.74290 | 5967 ft | 188 kts | 192° |
| 2026-05-04 17:21 | 55.43917 | -4.75023 | 5959 ft | 200 kts | 187° |
| 2026-05-04 17:22 | 55.42605 | -4.74291 | 5982 ft | 206 kts | 142° |
| 2026-05-04 17:22 | 55.41645 | -4.72400 | 5968 ft | 208 kts | 126° |
| 2026-05-04 17:23 | 55.39033 | -4.66279 | 6013 ft | 206 kts | 126° |
| 2026-05-04 17:23 | 55.38191 | -4.64304 | 6115 ft | 202 kts | 126° |
| 2026-05-04 17:23 | 55.36519 | -4.60383 | 6301 ft | 200 kts | 126° |
| 2026-05-04 17:24 | 55.35689 | -4.58440 | 6454 ft | 196 kts | 126° |
| 2026-05-04 17:24 | 55.33232 | -4.52816 | 6872 ft | 193 kts | 127° |
| 2026-05-04 17:25 | 55.32410 | -4.50968 | 6967 ft | 195 kts | 127° |
| 2026-05-04 17:25 | 55.30693 | -4.47111 | 6944 ft | 205 kts | 127° |
| 2026-05-04 17:26 | 55.28918 | -4.43131 | 6942 ft | 208 kts | 127° |
| 2026-05-04 17:26 | 55.26241 | -4.37135 | 6935 ft | 209 kts | 127° |
| 2026-05-04 17:27 | 55.24442 | -4.33116 | 6929 ft | 209 kts | 128° |
| 2026-05-04 17:27 | 55.22649 | -4.29115 | 6922 ft | 209 kts | 128° |
| 2026-05-04 17:28 | 55.20859 | -4.25128 | 6919 ft | 209 kts | 128° |
| 2026-05-04 17:29 | 55.18171 | -4.19153 | 6923 ft | 208 kts | 128° |
| 2026-05-04 17:29 | 55.15492 | -4.13210 | 6922 ft | 208 kts | 128° |
| 2026-05-04 17:30 | 55.12674 | -4.07467 | 6921 ft | 206 kts | 133° |
| 2026-05-04 17:31 | 55.10709 | -4.03834 | 6928 ft | 206 kts | 133° |
| 2026-05-04 17:31 | 55.07755 | -3.98389 | 6925 ft | 206 kts | 134° |
| 2026-05-04 17:32 | 55.05790 | -3.94780 | 6925 ft | 206 kts | 134° |
| 2026-05-04 17:33 | 55.02822 | -3.89343 | 6925 ft | 206 kts | 133° |
| 2026-05-04 17:33 | 55.01837 | -3.87541 | 6927 ft | 207 kts | 133° |
| 2026-05-04 17:34 | 54.98870 | -3.82120 | 6928 ft | 206 kts | 133° |
| 2026-05-04 17:34 | 54.97872 | -3.80301 | 6930 ft | 206 kts | 134° |
| 2026-05-04 17:35 | 54.94911 | -3.74909 | 6927 ft | 206 kts | 133° |
| 2026-05-04 17:35 | 54.92937 | -3.71322 | 6929 ft | 206 kts | 134° |
| 2026-05-04 17:35 | 54.91934 | -3.69503 | 6930 ft | 207 kts | 134° |
| 2026-05-04 17:36 | 54.90949 | -3.67718 | 6931 ft | 207 kts | 134° |
| 2026-05-04 17:36 | 54.89952 | -3.65913 | 6930 ft | 207 kts | 134° |
| 2026-05-04 17:36 | 54.88959 | -3.64115 | 6932 ft | 207 kts | 134° |
| 2026-05-04 17:36 | 54.87959 | -3.62306 | 6929 ft | 207 kts | 134° |
| 2026-05-04 17:37 | 54.86969 | -3.60518 | 6932 ft | 207 kts | 134° |
| 2026-05-04 17:37 | 54.85979 | -3.58729 | 6930 ft | 207 kts | 134° |
| 2026-05-04 17:37 | 54.84978 | -3.56924 | 6932 ft | 207 kts | 133° |
| 2026-05-04 17:37 | 54.83975 | -3.55115 | 6934 ft | 207 kts | 133° |
| 2026-05-04 17:38 | 54.82980 | -3.53322 | 6934 ft | 207 kts | 133° |
| 2026-05-04 17:38 | 54.81983 | -3.51527 | 6935 ft | 206 kts | 134° |
| 2026-05-04 17:38 | 54.80986 | -3.49749 | 6936 ft | 207 kts | 135° |
| 2026-05-04 17:38 | 54.79990 | -3.47988 | 6933 ft | 207 kts | 135° |
| 2026-05-04 17:39 | 54.77962 | -3.44380 | 6930 ft | 208 kts | 135° |
| 2026-05-04 17:39 | 54.76966 | -3.42599 | 6938 ft | 208 kts | 135° |
| 2026-05-04 17:39 | 54.75950 | -3.40784 | 6937 ft | 208 kts | 135° |
| 2026-05-04 17:40 | 54.74952 | -3.38998 | 6931 ft | 209 kts | 135° |
| 2026-05-04 17:40 | 54.73937 | -3.37183 | 6928 ft | 209 kts | 135° |
| 2026-05-04 17:40 | 54.72926 | -3.35375 | 6931 ft | 209 kts | 134° |
| 2026-05-04 17:40 | 54.71877 | -3.33649 | 6929 ft | 208 kts | 143° |
| 2026-05-04 17:41 | 54.70733 | -3.32142 | 6924 ft | 207 kts | 145° |
| 2026-05-04 17:41 | 54.69578 | -3.30646 | 6922 ft | 207 kts | 145° |
| 2026-05-04 17:41 | 54.68440 | -3.29171 | 6922 ft | 207 kts | 145° |
| 2026-05-04 17:41 | 54.67281 | -3.27665 | 6925 ft | 207 kts | 145° |
| 2026-05-04 17:42 | 54.66130 | -3.26172 | 6926 ft | 207 kts | 144° |
| 2026-05-04 17:42 | 54.64994 | -3.24696 | 6922 ft | 207 kts | 145° |
| 2026-05-04 17:42 | 54.63838 | -3.23197 | 6921 ft | 207 kts | 145° |
| 2026-05-04 17:42 | 54.62694 | -3.21714 | 6918 ft | 207 kts | 145° |
| 2026-05-04 17:43 | 54.61544 | -3.20224 | 6920 ft | 207 kts | 145° |
| 2026-05-04 17:43 | 54.60384 | -3.18721 | 6924 ft | 207 kts | 145° |
| 2026-05-04 17:43 | 54.59232 | -3.17232 | 6926 ft | 207 kts | 145° |
| 2026-05-04 17:43 | 54.58080 | -3.15741 | 6929 ft | 207 kts | 145° |
| 2026-05-04 17:44 | 54.56938 | -3.14266 | 6926 ft | 207 kts | 145° |
| 2026-05-04 17:44 | 54.55779 | -3.12769 | 6924 ft | 207 kts | 145° |
| 2026-05-04 17:44 | 54.54632 | -3.11289 | 6925 ft | 207 kts | 145° |
| 2026-05-04 17:44 | 54.53478 | -3.09801 | 6922 ft | 207 kts | 145° |
| 2026-05-04 17:45 | 54.52337 | -3.08333 | 6921 ft | 207 kts | 144° |
| 2026-05-04 17:45 | 54.51186 | -3.06849 | 6920 ft | 207 kts | 144° |
| 2026-05-04 17:45 | 54.50029 | -3.05362 | 6917 ft | 207 kts | 144° |
| 2026-05-04 17:45 | 54.48881 | -3.03886 | 6918 ft | 207 kts | 144° |
| 2026-05-04 17:46 | 54.47733 | -3.02411 | 6919 ft | 207 kts | 144° |
| 2026-05-04 17:46 | 54.46580 | -3.00930 | 6920 ft | 207 kts | 144° |
| 2026-05-04 17:46 | 54.45423 | -2.99447 | 6920 ft | 207 kts | 144° |
| 2026-05-04 17:46 | 54.44260 | -2.97955 | 6923 ft | 207 kts | 144° |
| 2026-05-04 17:47 | 54.43110 | -2.96482 | 6923 ft | 207 kts | 144° |
| 2026-05-04 17:47 | 54.41951 | -2.94999 | 6925 ft | 207 kts | 144° |
| 2026-05-04 17:47 | 54.40808 | -2.93536 | 6928 ft | 208 kts | 144° |
| 2026-05-04 17:47 | 54.39644 | -2.92049 | 6933 ft | 208 kts | 144° |
| 2026-05-04 17:48 | 54.38491 | -2.90576 | 6933 ft | 208 kts | 144° |
| 2026-05-04 17:48 | 54.37330 | -2.89094 | 6932 ft | 207 kts | 144° |
| 2026-05-04 17:48 | 54.36170 | -2.87615 | 6932 ft | 207 kts | 144° |
| 2026-05-04 17:48 | 54.35022 | -2.86152 | 6935 ft | 207 kts | 144° |
| 2026-05-04 17:49 | 54.33870 | -2.84684 | 6934 ft | 207 kts | 144° |
| 2026-05-04 17:49 | 54.32707 | -2.83205 | 6937 ft | 207 kts | 144° |
| 2026-05-04 17:49 | 54.31565 | -2.81753 | 6937 ft | 207 kts | 144° |
| 2026-05-04 17:49 | 54.30411 | -2.80285 | 6940 ft | 207 kts | 144° |
| 2026-05-04 17:50 | 54.29246 | -2.78806 | 6942 ft | 207 kts | 144° |
| 2026-05-04 17:50 | 54.28107 | -2.77360 | 6939 ft | 207 kts | 144° |
| 2026-05-04 17:50 | 54.26941 | -2.75881 | 6936 ft | 206 kts | 144° |
| 2026-05-04 17:50 | 54.25794 | -2.74428 | 6938 ft | 206 kts | 144° |
| 2026-05-04 17:51 | 54.24648 | -2.72976 | 6942 ft | 206 kts | 144° |
| 2026-05-04 17:51 | 54.23493 | -2.71515 | 6943 ft | 206 kts | 144° |
| 2026-05-04 17:51 | 54.22343 | -2.70061 | 6939 ft | 206 kts | 144° |
| 2026-05-04 17:51 | 54.21187 | -2.68601 | 6939 ft | 205 kts | 144° |
| 2026-05-04 17:52 | 54.20055 | -2.67173 | 6940 ft | 206 kts | 144° |
| 2026-05-04 17:52 | 54.18896 | -2.65712 | 6942 ft | 205 kts | 144° |
| 2026-05-04 17:52 | 54.17742 | -2.64259 | 6941 ft | 206 kts | 144° |
| 2026-05-04 17:52 | 54.16599 | -2.62819 | 6936 ft | 206 kts | 144° |
| 2026-05-04 17:53 | 54.15441 | -2.61362 | 6933 ft | 206 kts | 144° |
| 2026-05-04 17:53 | 54.14287 | -2.59912 | 6936 ft | 206 kts | 144° |
| 2026-05-04 17:53 | 54.13148 | -2.58481 | 6932 ft | 206 kts | 144° |
| 2026-05-04 17:53 | 54.11987 | -2.57022 | 6931 ft | 206 kts | 144° |
| 2026-05-04 17:54 | 54.10848 | -2.55593 | 6933 ft | 206 kts | 144° |
| 2026-05-04 17:54 | 54.09691 | -2.54142 | 6934 ft | 206 kts | 144° |
| 2026-05-04 17:54 | 54.08529 | -2.52686 | 6934 ft | 206 kts | 144° |
| 2026-05-04 17:54 | 54.07374 | -2.51239 | 6929 ft | 207 kts | 144° |
| 2026-05-04 17:55 | 54.06224 | -2.49800 | 6927 ft | 206 kts | 144° |
| 2026-05-04 17:55 | 54.05067 | -2.48355 | 6929 ft | 206 kts | 144° |
| 2026-05-04 17:55 | 54.03922 | -2.46924 | 6931 ft | 205 kts | 144° |
| 2026-05-04 17:55 | 54.02761 | -2.45474 | 6930 ft | 205 kts | 144° |
| 2026-05-04 17:56 | 54.01626 | -2.44057 | 6931 ft | 205 kts | 144° |
| 2026-05-04 17:56 | 54.00476 | -2.42623 | 6930 ft | 205 kts | 144° |
| 2026-05-04 17:56 | 53.99321 | -2.41182 | 6930 ft | 205 kts | 144° |
| 2026-05-04 17:56 | 53.98170 | -2.39749 | 6934 ft | 205 kts | 144° |
| 2026-05-04 17:57 | 53.97034 | -2.38334 | 6935 ft | 205 kts | 144° |
| 2026-05-04 17:57 | 53.95870 | -2.36886 | 6937 ft | 205 kts | 144° |
| 2026-05-04 17:57 | 53.94724 | -2.35461 | 6935 ft | 205 kts | 143° |
| 2026-05-04 17:57 | 53.93574 | -2.34032 | 6933 ft | 205 kts | 144° |
| 2026-05-04 17:58 | 53.92429 | -2.32610 | 6931 ft | 205 kts | 145° |
| 2026-05-04 17:58 | 53.91280 | -2.31185 | 6935 ft | 205 kts | 145° |
| 2026-05-04 17:58 | 53.90135 | -2.29766 | 6935 ft | 205 kts | 145° |
| 2026-05-04 17:58 | 53.88976 | -2.28330 | 6932 ft | 204 kts | 145° |
| 2026-05-04 17:59 | 53.87837 | -2.26921 | 6933 ft | 204 kts | 145° |
| 2026-05-04 17:59 | 53.86685 | -2.25495 | 6932 ft | 204 kts | 145° |
| 2026-05-04 17:59 | 53.84398 | -2.22669 | 6929 ft | 204 kts | 144° |
| 2026-05-04 18:00 | 53.83262 | -2.21266 | 6933 ft | 204 kts | 144° |
| 2026-05-04 18:00 | 53.82116 | -2.19852 | 6931 ft | 204 kts | 144° |
| 2026-05-04 18:00 | 53.80976 | -2.18446 | 6931 ft | 204 kts | 144° |
| 2026-05-04 18:00 | 53.79815 | -2.17015 | 6928 ft | 204 kts | 144° |
| 2026-05-04 18:01 | 53.78675 | -2.15611 | 6929 ft | 205 kts | 144° |
| 2026-05-04 18:01 | 53.77525 | -2.14196 | 6926 ft | 204 kts | 144° |
| 2026-05-04 18:01 | 53.76374 | -2.12781 | 6925 ft | 204 kts | 144° |
| 2026-05-04 18:02 | 53.73907 | -2.10708 | 6924 ft | 201 kts | 184° |
| 2026-05-04 18:02 | 53.72548 | -2.11111 | 6927 ft | 199 kts | 194° |
| 2026-05-04 18:02 | 53.71205 | -2.11651 | 6927 ft | 199 kts | 195° |
| 2026-05-04 18:02 | 53.69860 | -2.12202 | 6927 ft | 199 kts | 195° |
| 2026-05-04 18:03 | 53.68514 | -2.12755 | 6929 ft | 198 kts | 196° |
| 2026-05-04 18:03 | 53.67180 | -2.13304 | 6931 ft | 198 kts | 196° |
| 2026-05-04 18:03 | 53.65840 | -2.13857 | 6933 ft | 198 kts | 196° |
| 2026-05-04 18:03 | 53.64508 | -2.14407 | 6935 ft | 198 kts | 196° |
| 2026-05-04 18:04 | 53.63173 | -2.14959 | 6935 ft | 198 kts | 196° |
| 2026-05-04 18:04 | 53.61841 | -2.15508 | 6936 ft | 198 kts | 196° |
| 2026-05-04 18:04 | 53.59169 | -2.16609 | 6937 ft | 198 kts | 196° |
| 2026-05-04 18:05 | 53.57844 | -2.17155 | 6937 ft | 198 kts | 196° |
| 2026-05-04 18:05 | 53.56508 | -2.17704 | 6938 ft | 197 kts | 196° |
| 2026-05-04 18:05 | 53.55178 | -2.18251 | 6941 ft | 197 kts | 196° |
| 2026-05-04 18:05 | 53.53833 | -2.18804 | 6941 ft | 197 kts | 196° |
| 2026-05-04 18:06 | 53.51202 | -2.19884 | 6946 ft | 197 kts | 196° |
| 2026-05-04 18:06 | 53.49903 | -2.20417 | 6947 ft | 197 kts | 196° |
| 2026-05-04 18:06 | 53.48575 | -2.20961 | 6943 ft | 197 kts | 196° |
| 2026-05-04 18:07 | 53.47242 | -2.21508 | 6940 ft | 198 kts | 195° |
| 2026-05-04 18:07 | 53.45900 | -2.22057 | 6934 ft | 197 kts | 195° |
| 2026-05-04 18:07 | 53.44577 | -2.22598 | 6964 ft | 197 kts | 195° |
| 2026-05-04 18:07 | 53.43248 | -2.23141 | 6966 ft | 198 kts | 195° |
| 2026-05-04 18:08 | 53.41911 | -2.23687 | 6963 ft | 198 kts | 195° |
| 2026-05-04 18:08 | 53.40565 | -2.24236 | 6967 ft | 198 kts | 196° |
| 2026-05-04 18:08 | 53.39220 | -2.24785 | 6971 ft | 198 kts | 196° |
| 2026-05-04 18:08 | 53.37883 | -2.25331 | 6972 ft | 199 kts | 196° |
| 2026-05-04 18:09 | 53.35192 | -2.25632 | 6973 ft | 202 kts | 159° |
| 2026-05-04 18:09 | 53.32739 | -2.23472 | 6972 ft | 203 kts | 152° |
| 2026-05-04 18:10 | 53.31509 | -2.22337 | 6971 ft | 203 kts | 152° |
| 2026-05-04 18:10 | 53.30275 | -2.21197 | 6974 ft | 203 kts | 152° |
| 2026-05-04 18:10 | 53.29037 | -2.20054 | 6971 ft | 203 kts | 152° |
| 2026-05-04 18:10 | 53.27806 | -2.18917 | 6971 ft | 203 kts | 152° |
| 2026-05-04 18:11 | 53.26569 | -2.17776 | 6963 ft | 203 kts | 152° |
| 2026-05-04 18:11 | 53.25334 | -2.16636 | 6962 ft | 203 kts | 152° |
| 2026-05-04 18:11 | 53.24102 | -2.15500 | 6966 ft | 202 kts | 152° |
| 2026-05-04 18:11 | 53.22872 | -2.14367 | 6966 ft | 202 kts | 152° |
| 2026-05-04 18:12 | 53.21639 | -2.13231 | 6966 ft | 203 kts | 152° |
| 2026-05-04 18:12 | 53.20408 | -2.12098 | 6960 ft | 203 kts | 152° |
| 2026-05-04 18:12 | 53.19172 | -2.10962 | 6962 ft | 203 kts | 152° |
| 2026-05-04 18:12 | 53.17976 | -2.09862 | 6960 ft | 203 kts | 152° |
| 2026-05-04 18:13 | 53.16739 | -2.08727 | 6959 ft | 203 kts | 152° |
| 2026-05-04 18:13 | 53.15496 | -2.07586 | 6953 ft | 203 kts | 152° |
| 2026-05-04 18:13 | 53.13031 | -2.05327 | 6955 ft | 202 kts | 152° |
| 2026-05-04 18:14 | 53.11797 | -2.04196 | 6955 ft | 202 kts | 152° |
| 2026-05-04 18:14 | 53.10573 | -2.03075 | 6955 ft | 202 kts | 152° |
| 2026-05-04 18:14 | 53.09339 | -2.01946 | 6955 ft | 202 kts | 152° |
| 2026-05-04 18:15 | 53.06898 | -1.99714 | 6956 ft | 202 kts | 152° |
| 2026-05-04 18:15 | 53.04634 | -1.97042 | 6950 ft | 202 kts | 117° |
| 2026-05-04 18:15 | 53.04394 | -1.94784 | 6961 ft | 201 kts | 88° |
| 2026-05-04 18:16 | 53.04459 | -1.92498 | 6958 ft | 201 kts | 85° |
| 2026-05-04 18:16 | 53.04546 | -1.90156 | 6957 ft | 201 kts | 85° |
| 2026-05-04 18:16 | 53.04633 | -1.87847 | 6958 ft | 201 kts | 85° |
| 2026-05-04 18:17 | 53.04805 | -1.83215 | 6957 ft | 201 kts | 85° |
| 2026-05-04 18:17 | 53.04893 | -1.80890 | 6956 ft | 201 kts | 85° |
| 2026-05-04 18:17 | 53.05071 | -1.76363 | 6664 ft | 181 kts | 85° |
| 2026-05-04 18:18 | 53.05145 | -1.74373 | 6403 ft | 167 kts | 84° |
| 2026-05-04 18:18 | 53.05211 | -1.72521 | 6122 ft | 160 kts | 84° |
| 2026-05-04 18:18 | 53.05274 | -1.70706 | 5824 ft | 155 kts | 84° |
| 2026-05-04 18:18 | 53.05337 | -1.68936 | 5518 ft | 152 kts | 84° |
| 2026-05-04 18:19 | 53.05410 | -1.65472 | 4911 ft | 150 kts | 87° |
| 2026-05-04 18:19 | 53.05407 | -1.63761 | 4609 ft | 148 kts | 87° |
| 2026-05-04 18:19 | 53.05406 | -1.62053 | 4306 ft | 147 kts | 86° |
| 2026-05-04 18:20 | 53.05405 | -1.60374 | 4008 ft | 146 kts | 86° |
| 2026-05-04 18:20 | 53.05403 | -1.58699 | 3711 ft | 145 kts | 86° |
| 2026-05-04 18:20 | 53.05358 | -1.57040 | 3414 ft | 144 kts | 90° |
| 2026-05-04 18:20 | 53.05300 | -1.55396 | 3121 ft | 142 kts | 86° |
| 2026-05-04 18:21 | 53.05550 | -1.53874 | 2752 ft | 141 kts | 50° |
| 2026-05-04 18:21 | 53.06012 | -1.52387 | 2283 ft | 152 kts | 79° |
| 2026-05-04 18:21 | 53.05992 | -1.50827 | 2380 ft | 121 kts | 89° |
| 2026-05-04 18:21 | 53.05925 | -1.49547 | 2403 ft | 104 kts | 89° |
| 2026-05-04 18:22 | 53.05857 | -1.48379 | 2414 ft | 102 kts | 89° |
| 2026-05-04 18:22 | 53.05788 | -1.47189 | 2423 ft | 106 kts | 89° |
| 2026-05-04 18:22 | 53.05719 | -1.45899 | 2426 ft | 118 kts | 90° |
| 2026-05-04 18:22 | 53.05651 | -1.44475 | 2424 ft | 128 kts | 90° |
| 2026-05-04 18:23 | 53.05579 | -1.42944 | 2423 ft | 135 kts | 90° |
| 2026-05-04 18:23 | 53.05507 | -1.41344 | 2422 ft | 140 kts | 90° |
| 2026-05-04 18:23 | 53.05435 | -1.39714 | 2440 ft | 141 kts | 90° |
| 2026-05-04 18:23 | 53.05365 | -1.38099 | 2423 ft | 140 kts | 90° |
| 2026-05-04 18:24 | 53.05295 | -1.36500 | 2419 ft | 138 kts | 90° |
| 2026-05-04 18:24 | 53.05227 | -1.34922 | 2417 ft | 137 kts | 90° |
| 2026-05-04 18:24 | 53.05163 | -1.33340 | 2416 ft | 137 kts | 90° |
| 2026-05-04 18:24 | 53.05100 | -1.31798 | 2416 ft | 136 kts | 91° |
| 2026-05-04 18:25 | 53.05033 | -1.30240 | 2416 ft | 135 kts | 91° |
| 2026-05-04 18:25 | 53.04967 | -1.28679 | 2415 ft | 135 kts | 90° |
| 2026-05-04 18:25 | 53.04901 | -1.27163 | 2414 ft | 135 kts | 91° |
| 2026-05-04 18:25 | 53.04795 | -1.25624 | 2406 ft | 138 kts | 105° |
| 2026-05-04 18:26 | 53.04178 | -1.24403 | 2405 ft | 142 kts | 149° |
| 2026-05-04 18:26 | 53.03217 | -1.24075 | 2414 ft | 142 kts | 178° |
| 2026-05-04 18:26 | 53.02244 | -1.24055 | 2416 ft | 142 kts | 179° |
| 2026-05-04 18:26 | 53.01245 | -1.24041 | 2417 ft | 142 kts | 179° |
| 2026-05-04 18:27 | 53.00268 | -1.24032 | 2418 ft | 142 kts | 179° |
| 2026-05-04 18:27 | 52.99266 | -1.24026 | 2419 ft | 142 kts | 179° |
| 2026-05-04 18:27 | 52.98294 | -1.24021 | 2419 ft | 142 kts | 179° |
| 2026-05-04 18:27 | 52.97304 | -1.24016 | 2419 ft | 143 kts | 179° |
| 2026-05-04 18:28 | 52.96314 | -1.23923 | 2419 ft | 142 kts | 174° |
| 2026-05-04 18:28 | 52.95336 | -1.23785 | 2418 ft | 142 kts | 174° |
| 2026-05-04 18:28 | 52.94349 | -1.23644 | 2420 ft | 143 kts | 174° |
| 2026-05-04 18:28 | 52.93352 | -1.23499 | 2420 ft | 143 kts | 174° |
| 2026-05-04 18:29 | 52.92375 | -1.23355 | 2419 ft | 143 kts | 174° |
| 2026-05-04 18:29 | 52.91375 | -1.23205 | 2421 ft | 143 kts | 174° |
| 2026-05-04 18:29 | 52.90397 | -1.23059 | 2418 ft | 141 kts | 174° |
| 2026-05-04 18:29 | 52.89426 | -1.22914 | 2418 ft | 137 kts | 174° |
| 2026-05-04 18:30 | 52.87588 | -1.22655 | 2223 ft | 130 kts | 174° |
| 2026-05-04 18:30 | 52.86678 | -1.22533 | 2035 ft | 134 kts | 174° |
| 2026-05-04 18:30 | 52.85749 | -1.22413 | 1825 ft | 135 kts | 175° |
| 2026-05-04 18:31 | 52.84848 | -1.22793 | 1592 ft | 135 kts | 208° |
| 2026-05-04 18:31 | 52.84054 | -1.23527 | 1368 ft | 123 kts | 210° |
| 2026-05-04 18:31 | 52.83345 | -1.24203 | 1091 ft | 113 kts | 212° |
| 2026-05-04 18:31 | 52.82912 | -1.25107 | 977 ft | 95 kts | 256° |
| 2026-05-04 18:32 | 52.82960 | -1.26144 | 870 ft | 91 kts | 300° |
| 2026-05-04 18:32 | 52.83166 | -1.27148 | 762 ft | 97 kts | 278° |
| 2026-05-04 18:32 | 52.83177 | -1.28302 | 633 ft | 102 kts | 271° |
| 2026-05-04 18:32 | 52.83158 | -1.29492 | 494 ft | 106 kts | 270° |
| 2026-05-04 18:33 | 52.83136 | -1.30712 | 350 ft | 105 kts | 270° |
| 2026-05-04 18:33 | 52.83120 | -1.31879 | 285 ft | 94 kts | 273° |
| 2026-05-04 18:33 | 52.83099 | -1.32768 | 293 ft | 64 kts | 272° |
| 2026-05-04 18:33 | 52.83087 | -1.33390 | 301 ft | 46 kts | 266° |
| 2026-05-04 18:34 | 52.83052 | -1.33727 | 303 ft | 11 kts | 179° |
| 2026-05-04 18:34 | 52.82972 | -1.33726 | 302 ft | 0 kts | 175° |
| 2026-05-04 18:35 | 52.82968 | -1.33725 | 302 ft | 2 kts | 172° |
| 2026-05-04 18:35 | 52.82967 | -1.33724 | 302 ft | 0 kts | 171° |
| 2026-05-04 18:35 | 52.82949 | -1.33723 | 301 ft | 4 kts | 184° |
| 2026-05-04 18:35 | 52.82880 | -1.33716 | 300 ft | 14 kts | 167° |
| 2026-05-04 18:36 | 52.82847 | -1.33826 | 299 ft | 13 kts | 272° |
| 2026-05-04 18:36 | 52.82840 | -1.33897 | 299 ft | 0 kts | 60° |
| 2026-05-04 18:36 | 52.82841 | -1.33896 | 299 ft | 0 kts | 60° |